Time;durP1;ratioP1;P1;durP2;ratioP2;P2;SDS_P1;SDS_P2;PMS_P1;PMS_P2;Temp;Humidity;BMP_temperature;BMP_pressure;BME280_temperature;BME280_humidity;BME280_pressure;Samples;Min_cycle;Max_cycle;Signal;HPM_P1;HPM_P2
2021/08/21 00:00:44;;;;;;;6.68;3.03;;;17.20;99.90;;;;;;5076473;28;20031;-88
2021/08/21 00:03:10;;;;;;;7.00;3.25;;;17.10;99.90;;;;;;5076503;28;20027;-87
2021/08/21 00:05:36;;;;;;;4.13;2.65;;;17.10;99.90;;;;;;5076421;28;20027;-88
2021/08/21 00:08:03;;;;;;;7.57;2.80;;;17.00;99.90;;;;;;5076557;28;20020;-88
2021/08/21 00:10:30;;;;;;;8.30;2.90;;;17.10;99.90;;;;;;5076337;28;20434;-88
2021/08/21 00:12:56;;;;;;;5.85;2.88;;;17.10;99.90;;;;;;5076242;28;20052;-88
2021/08/21 00:15:22;;;;;;;3.20;2.50;;;17.10;99.90;;;;;;5076365;28;20063;-88
2021/08/21 00:17:48;;;;;;;4.78;2.95;;;17.10;99.90;;;;;;5076234;28;20028;-88
2021/08/21 00:20:14;;;;;;;4.30;2.95;;;17.20;99.90;;;;;;5094312;28;20028;-88
2021/08/21 00:22:41;;;;;;;5.35;3.20;;;17.20;99.90;;;;;;5076018;28;20031;-88
2021/08/21 00:25:08;;;;;;;3.95;2.60;;;17.20;99.90;;;;;;5075891;28;20031;-88
2021/08/21 00:27:33;;;;;;;5.40;3.08;;;17.20;99.90;;;;;;5094490;28;20502;-88
2021/08/21 00:29:59;;;;;;;9.73;3.33;;;17.30;99.90;;;;;;5075956;28;20024;-88
2021/08/21 00:32:25;;;;;;;7.13;3.10;;;17.10;99.90;;;;;;5075929;28;20051;-88
2021/08/21 00:34:50;;;;;;;6.85;3.20;;;17.10;99.90;;;;;;5076081;28;20387;-88
2021/08/21 00:37:16;;;;;;;4.10;2.92;;;17.10;99.90;;;;;;5094578;28;20082;-88
2021/08/21 00:39:42;;;;;;;3.85;2.38;;;17.10;99.90;;;;;;5077204;28;20024;-89
2021/08/21 00:42:08;;;;;;;9.05;2.78;;;17.10;99.90;;;;;;5106640;28;20028;-87
2021/08/21 00:44:35;;;;;;;4.05;2.90;;;17.10;99.90;;;;;;5099362;28;20012;-88
2021/08/21 00:47:15;;;;;;;8.45;2.95;;;17.10;99.90;;;;;;5090344;28;20122;-88
2021/08/21 00:49:46;;;;;;;5.90;2.63;;;17.00;99.90;;;;;;5078488;28;20165;-88
2021/08/21 00:52:19;;;;;;;5.13;2.50;;;16.90;99.90;;;;;;5076539;28;20079;-88
2021/08/21 00:54:45;;;;;;;3.78;2.72;;;17.20;99.90;;;;;;5076425;28;20483;-88
2021/08/21 00:57:15;;;;;;;5.72;3.13;;;17.20;99.90;;;;;;5075654;28;20016;-88
2021/08/21 00:59:41;;;;;;;4.35;2.90;;;16.90;99.90;;;;;;5093697;28;20528;-88
2021/08/21 01:02:09;;;;;;;7.95;2.72;;;17.00;99.90;;;;;;5075496;28;20028;-88
2021/08/21 01:04:43;;;;;;;6.40;3.30;;;17.10;99.90;;;;;;5075804;28;20545;-88
2021/08/21 01:07:11;;;;;;;9.02;3.58;;;17.10;99.90;;;;;;5075803;28;20024;-88
2021/08/21 01:09:40;;;;;;;8.93;3.58;;;16.90;99.90;;;;;;5075376;28;20055;-89
2021/08/21 01:12:07;;;;;;;4.90;3.00;;;16.80;99.90;;;;;;5075493;28;20094;-88
2021/08/21 01:14:33;;;;;;;4.60;2.63;;;16.90;99.90;;;;;;5075381;28;20155;-89
2021/08/21 01:16:59;;;;;;;5.85;2.90;;;16.90;99.90;;;;;;5075311;28;20052;-89
2021/08/21 01:19:26;;;;;;;5.35;2.72;;;16.90;99.90;;;;;;5075291;28;20086;-89
2021/08/21 01:21:52;;;;;;;6.90;2.92;;;17.10;99.90;;;;;;5075358;28;20062;-88
2021/08/21 01:24:17;;;;;;;6.68;2.72;;;17.10;99.90;;;;;;5075401;28;20403;-88
2021/08/21 01:26:55;;;;;;;3.92;2.83;;;17.10;99.90;;;;;;5075367;28;20488;-88
2021/08/21 01:29:23;;;;;;;4.47;2.65;;;16.90;99.90;;;;;;5093289;28;20027;-89
2021/08/21 01:31:49;;;;;;;5.38;2.90;;;16.80;99.90;;;;;;5093457;28;20029;-88
2021/08/21 01:34:16;;;;;;;6.30;3.20;;;16.90;99.90;;;;;;5075149;28;20469;-88
2021/08/21 01:36:43;;;;;;;5.63;2.47;;;16.90;99.90;;;;;;5096213;28;20027;-89
2021/08/21 01:39:09;;;;;;;4.78;2.70;;;16.90;99.90;;;;;;5097641;28;20421;-89
2021/08/21 01:41:35;;;;;;;7.68;3.15;;;16.90;99.90;;;;;;5079283;28;20024;-88
2021/08/21 01:44:02;;;;;;;6.75;2.95;;;16.70;99.90;;;;;;5079161;28;20069;-89
2021/08/21 01:46:27;;;;;;;6.63;2.97;;;16.50;99.90;;;;;;5079016;28;20545;-88
2021/08/21 01:48:53;;;;;;;8.05;3.03;;;16.80;99.90;;;;;;5079091;28;20020;-89
2021/08/21 01:51:19;;;;;;;5.32;2.70;;;16.80;99.90;;;;;;5078705;28;20079;-88
2021/08/21 01:53:44;;;;;;;4.88;2.65;;;16.70;99.90;;;;;;5078951;28;20021;-88
2021/08/21 01:56:10;;;;;;;3.10;2.67;;;16.90;99.90;;;;;;5078922;28;20388;-87
2021/08/21 01:58:36;;;;;;;3.70;2.72;;;16.90;99.90;;;;;;5078919;28;20024;-88
2021/08/21 02:01:04;;;;;;;5.55;2.75;;;17.00;99.90;;;;;;5096931;28;20052;-88
2021/08/21 02:03:31;;;;;;;4.38;2.85;;;17.10;99.90;;;;;;5078665;28;20106;-88
2021/08/21 02:05:57;;;;;;;5.20;2.85;;;17.00;99.90;;;;;;5096840;28;20031;-88
2021/08/21 02:08:23;;;;;;;5.15;3.03;;;17.00;99.90;;;;;;5078617;28;20023;-88
2021/08/21 02:10:49;;;;;;;7.38;3.00;;;16.90;99.90;;;;;;5078444;28;20115;-88
2021/08/21 02:13:15;;;;;;;5.05;2.85;;;16.90;99.90;;;;;;5078649;28;20138;-88
2021/08/21 02:15:41;;;;;;;6.60;2.60;;;16.90;99.90;;;;;;5078666;28;20052;-88
2021/08/21 02:18:07;;;;;;;3.65;2.92;;;17.00;99.90;;;;;;5078443;28;20043;-88
2021/08/21 02:20:32;;;;;;;3.83;2.70;;;16.80;99.90;;;;;;5078423;28;20063;-88
2021/08/21 02:22:58;;;;;;;6.35;2.70;;;16.60;99.90;;;;;;5078355;28;20031;-88
2021/08/21 02:25:24;;;;;;;4.38;2.70;;;16.60;99.90;;;;;;5078409;28;20074;-88
2021/08/21 02:27:57;;;;;;;4.07;2.60;;;16.70;99.90;;;;;;5078303;28;20123;-88
2021/08/21 02:30:23;;;;;;;4.20;3.20;;;16.70;99.90;;;;;;5078245;28;20031;-88
2021/08/21 02:32:49;;;;;;;6.85;2.58;;;16.70;99.90;;;;;;5078214;28;20081;-88
2021/08/21 02:35:15;;;;;;;3.25;2.70;;;16.60;99.90;;;;;;5078121;28;20028;-88
2021/08/21 02:37:40;;;;;;;3.90;2.90;;;16.70;99.90;;;;;;5078030;28;20031;-88
2021/08/21 02:40:07;;;;;;;3.78;3.00;;;16.80;99.90;;;;;;5078127;28;20024;-88
2021/08/21 02:42:32;;;;;;;3.95;2.33;;;16.80;99.90;;;;;;5078368;28;20031;-88
2021/08/21 02:44:58;;;;;;;6.65;3.00;;;17.00;99.90;;;;;;5078038;28;20414;-88
2021/08/21 02:47:24;;;;;;;7.65;2.83;;;17.00;99.90;;;;;;5077979;28;20027;-88
2021/08/21 02:49:49;;;;;;;6.47;3.30;;;16.70;99.90;;;;;;5077849;28;20488;-88
2021/08/21 02:52:15;;;;;;;8.20;2.75;;;16.70;99.90;;;;;;5063084;28;20049;-89
2021/08/21 02:54:41;;;;;;;8.95;2.97;;;16.70;99.90;;;;;;5055773;28;20017;-88
2021/08/21 02:57:06;;;;;;;8.80;2.80;;;16.50;99.90;;;;;;5070446;28;20020;-89
2021/08/21 02:59:32;;;;;;;5.68;2.80;;;16.50;99.90;;;;;;5079290;28;20088;-90
2021/08/21 03:01:58;;;;;;;5.80;2.90;;;16.60;99.90;;;;;;5062931;28;20056;-88
2021/08/21 03:04:23;;;;;;;4.90;2.72;;;16.80;99.90;;;;;;5057406;28;20024;-88
2021/08/21 03:06:49;;;;;;;7.32;2.80;;;16.80;99.90;;;;;;5056598;28;20100;-88
2021/08/21 03:09:15;;;;;;;3.97;3.00;;;16.80;99.90;;;;;;5054269;28;20378;-88
2021/08/21 03:11:40;;;;;;;8.80;3.03;;;16.60;99.90;;;;;;5055448;28;20013;-88
2021/08/21 03:14:06;;;;;;;7.70;2.45;;;16.60;99.90;;;;;;5055532;28;20028;-88
2021/08/21 03:16:32;;;;;;;6.55;2.72;;;16.50;99.90;;;;;;5054034;28;20112;-88
2021/08/21 03:18:57;;;;;;;3.97;2.95;;;16.50;99.90;;;;;;5053883;28;20028;-88
2021/08/21 03:21:23;;;;;;;4.18;3.25;;;16.50;99.90;;;;;;5055231;28;20079;-88
2021/08/21 03:23:49;;;;;;;3.95;2.63;;;16.50;99.90;;;;;;5053925;28;20075;-88
2021/08/21 03:26:15;;;;;;;6.45;3.15;;;16.50;99.90;;;;;;5053745;28;20036;-88
2021/08/21 03:28:41;;;;;;;6.38;3.08;;;16.50;99.90;;;;;;5053955;28;20021;-88
2021/08/21 03:31:07;;;;;;;7.82;3.05;;;16.50;99.90;;;;;;5053603;28;20036;-88
2021/08/21 03:33:32;;;;;;;5.13;3.15;;;16.50;99.90;;;;;;5053730;28;20389;-89
2021/08/21 03:35:58;;;;;;;4.63;3.15;;;16.60;99.90;;;;;;5055014;28;20017;-88
2021/08/21 03:38:24;;;;;;;6.53;2.85;;;16.50;99.90;;;;;;5054905;28;20099;-89
2021/08/21 03:40:50;;;;;;;5.05;2.72;;;16.40;99.90;;;;;;5053651;28;20025;-88
2021/08/21 03:43:15;;;;;;;9.23;2.70;;;16.50;99.90;;;;;;5053666;28;20067;-89
2021/08/21 03:45:42;;;;;;;5.60;2.75;;;16.60;99.90;;;;;;5053415;28;20075;-89
2021/08/21 03:48:09;;;;;;;4.25;2.65;;;16.60;99.90;;;;;;5053407;28;20591;-89
2021/08/21 03:50:35;;;;;;;5.57;2.70;;;16.80;99.90;;;;;;5053453;28;20056;-88
2021/08/21 03:53:01;;;;;;;5.55;2.95;;;16.60;99.90;;;;;;5053213;28;20045;-89
2021/08/21 03:55:26;;;;;;;5.53;2.65;;;16.40;99.90;;;;;;5053497;28;20033;-89
2021/08/21 03:57:52;;;;;;;4.40;2.83;;;16.60;99.90;;;;;;5054043;28;20013;-88
2021/08/21 04:00:18;;;;;;;4.47;3.05;;;16.40;99.90;;;;;;5053501;28;20514;-88
2021/08/21 04:02:44;;;;;;;3.40;2.80;;;16.40;99.90;;;;;;5054372;28;20096;-88
2021/08/21 04:05:09;;;;;;;4.55;3.15;;;16.40;99.90;;;;;;5054301;28;20029;-88
2021/08/21 04:07:35;;;;;;;7.28;3.40;;;16.40;99.90;;;;;;5053086;28;20032;-89
2021/08/21 04:10:03;;;;;;;4.85;2.80;;;16.40;99.90;;;;;;5054149;28;20036;-89
2021/08/21 04:12:29;;;;;;;5.75;3.00;;;16.30;99.90;;;;;;5054133;28;20028;-89
2021/08/21 04:14:54;;;;;;;4.75;2.80;;;16.40;99.90;;;;;;5053026;28;20020;-89
2021/08/21 04:17:20;;;;;;;5.45;2.83;;;16.30;99.90;;;;;;5053257;28;20154;-89
2021/08/21 04:19:46;;;;;;;5.13;2.83;;;16.50;99.90;;;;;;5052863;28;20025;-88
2021/08/21 04:22:11;;;;;;;5.43;3.17;;;16.40;99.90;;;;;;5052791;28;20028;-89
2021/08/21 04:24:37;;;;;;;4.10;3.00;;;16.30;99.90;;;;;;5052778;28;20159;-89
2021/08/21 04:27:03;;;;;;;4.82;2.53;;;16.40;99.90;;;;;;5052611;28;20032;-89
2021/08/21 04:29:29;;;;;;;5.85;2.80;;;16.50;99.90;;;;;;5052597;28;20031;-88
2021/08/21 04:31:54;;;;;;;7.57;3.08;;;16.50;99.90;;;;;;5052563;28;20028;-89
2021/08/21 04:34:20;;;;;;;4.63;2.70;;;16.50;99.90;;;;;;5052756;28;20021;-88
2021/08/21 04:36:46;;;;;;;5.78;2.92;;;16.50;99.90;;;;;;5052508;28;20111;-88
2021/08/21 04:39:11;;;;;;;8.10;3.20;;;16.50;99.90;;;;;;5052565;28;20113;-88
2021/08/21 04:41:37;;;;;;;4.22;2.80;;;16.60;99.90;;;;;;5052674;28;20035;-89
2021/08/21 04:44:03;;;;;;;7.68;3.10;;;16.50;99.90;;;;;;5053737;28;20081;-89
2021/08/21 04:46:28;;;;;;;5.00;3.33;;;16.40;99.90;;;;;;5052709;28;20053;-89
2021/08/21 04:48:54;;;;;;;5.22;3.15;;;16.40;99.90;;;;;;5052401;28;20025;-89
2021/08/21 04:51:20;;;;;;;3.83;2.97;;;16.30;99.90;;;;;;5053218;28;20037;-89
2021/08/21 04:53:45;;;;;;;5.93;3.28;;;16.10;99.90;;;;;;5058003;28;20032;-89
2021/08/21 04:56:11;;;;;;;7.47;2.78;;;16.40;99.90;;;;;;5052274;28;20028;-89
2021/08/21 04:58:37;;;;;;;4.30;2.72;;;16.50;99.90;;;;;;5052252;28;20021;-89
2021/08/21 05:01:02;;;;;;;8.20;3.20;;;16.40;99.90;;;;;;5053485;28;20028;-89
2021/08/21 05:03:28;;;;;;;3.83;2.95;;;16.50;99.90;;;;;;5052216;28;20040;-88
2021/08/21 05:05:54;;;;;;;9.73;3.25;;;16.40;99.90;;;;;;5054212;28;20064;-89
2021/08/21 05:08:19;;;;;;;8.60;3.45;;;16.50;99.90;;;;;;5054494;28;20025;-89
2021/08/21 05:10:45;;;;;;;4.82;2.80;;;16.30;99.90;;;;;;5066343;28;20033;-89
2021/08/21 05:13:11;;;;;;;6.35;3.10;;;16.40;99.90;;;;;;5076660;28;20016;-88
2021/08/21 05:15:39;;;;;;;6.00;3.00;;;16.50;99.90;;;;;;5063040;28;20124;-89
2021/08/21 05:18:05;;;;;;;5.90;3.10;;;16.50;99.90;;;;;;5053983;28;20032;-88
2021/08/21 05:23:29;;;;;;;3.85;3.15;;;16.60;99.90;;;;;;5030692;28;20025;-89
2021/08/21 05:25:55;;;;;;;4.25;2.60;;;16.70;99.90;;;;;;5052039;28;20155;-89
2021/08/21 05:28:20;;;;;;;5.50;3.10;;;16.70;99.90;;;;;;5052351;28;20086;-88
2021/08/21 05:30:46;;;;;;;3.70;2.83;;;16.60;99.90;;;;;;5051912;28;20025;-89
2021/08/21 05:33:15;;;;;;;6.82;3.10;;;16.60;99.90;;;;;;5051809;28;20107;-89
2021/08/21 05:35:41;;;;;;;4.40;2.90;;;16.50;99.90;;;;;;5051674;28;20489;-89
2021/08/21 05:38:07;;;;;;;5.25;2.85;;;16.80;99.90;;;;;;5051749;28;20059;-89
2021/08/21 05:40:33;;;;;;;4.70;2.92;;;16.80;99.90;;;;;;5053051;28;20079;-89
2021/08/21 05:42:59;;;;;;;4.40;3.00;;;16.80;99.90;;;;;;5051900;28;20025;-89
2021/08/21 05:45:26;;;;;;;5.72;3.03;;;16.80;99.90;;;;;;5052304;28;20195;-89
2021/08/21 05:47:52;;;;;;;4.63;2.80;;;16.90;99.90;;;;;;5051680;28;20489;-89
2021/08/21 05:50:19;;;;;;;6.30;3.00;;;16.90;99.90;;;;;;5051563;28;20485;-89
2021/08/21 05:52:45;;;;;;;5.35;3.20;;;16.90;99.90;;;;;;5084960;28;20044;-89
2021/08/21 05:55:11;;;;;;;6.85;2.85;;;16.90;99.90;;;;;;5075043;28;20365;-88
2021/08/21 05:57:37;;;;;;;4.18;2.80;;;16.90;99.90;;;;;;5075055;28;20027;-88
2021/08/21 06:00:04;;;;;;;3.78;2.85;;;17.10;99.90;;;;;;5075112;28;20036;-89
2021/08/21 06:02:30;;;;;;;4.13;2.75;;;17.20;99.90;;;;;;5075509;28;20384;-89
2021/08/21 06:04:56;;;;;;;4.43;3.03;;;17.10;99.90;;;;;;5075064;28;20092;-89
2021/08/21 06:07:22;;;;;;;5.38;3.13;;;16.90;99.90;;;;;;5074795;28;20034;-88
2021/08/21 06:09:48;;;;;;;4.72;3.15;;;16.70;99.90;;;;;;5074800;28;20024;-89
2021/08/21 06:12:13;;;;;;;5.85;3.03;;;16.90;99.90;;;;;;5093107;28;20016;-88
2021/08/21 06:14:40;;;;;;;4.25;2.80;;;16.80;99.90;;;;;;5074927;28;20031;-89
2021/08/21 06:17:09;;;;;;;4.80;3.20;;;16.80;99.90;;;;;;5074658;28;20020;-89
2021/08/21 06:19:35;;;;;;;4.50;2.90;;;17.00;99.90;;;;;;5074877;28;20395;-89
2021/08/21 06:22:01;;;;;;;4.93;2.95;;;17.00;99.90;;;;;;5076334;28;20081;-89
2021/08/21 06:24:27;;;;;;;5.70;3.03;;;16.80;99.90;;;;;;5078450;28;20422;-89
2021/08/21 06:26:53;;;;;;;5.13;3.08;;;17.10;99.90;;;;;;5096699;28;20028;-89
2021/08/21 06:29:19;;;;;;;6.90;2.83;;;17.10;99.90;;;;;;5078172;28;20505;-88
2021/08/21 06:31:44;;;;;;;4.78;3.25;;;17.10;99.90;;;;;;5078252;28;20086;-89
2021/08/21 06:34:10;;;;;;;4.50;2.97;;;17.20;99.90;;;;;;5079047;28;20059;-88
2021/08/21 06:36:36;;;;;;;4.97;3.08;;;17.40;99.90;;;;;;5078192;28;20460;-89
2021/08/21 06:39:04;;;;;;;6.85;3.20;;;17.50;99.90;;;;;;5096272;28;20024;-89
2021/08/21 06:41:29;;;;;;;10.13;3.58;;;17.30;99.90;;;;;;5078090;28;20024;-89
2021/08/21 06:43:55;;;;;;;4.35;3.35;;;17.30;99.90;;;;;;5078068;28;20031;-89
2021/08/21 06:46:21;;;;;;;3.83;3.17;;;17.40;99.90;;;;;;5078067;28;20027;-89
2021/08/21 06:48:47;;;;;;;6.22;3.33;;;17.40;99.90;;;;;;5077881;28;20039;-89
2021/08/21 06:51:13;;;;;;;6.60;3.33;;;17.40;99.90;;;;;;5077505;28;20040;-89
2021/08/21 06:53:40;;;;;;;5.20;3.17;;;17.20;99.90;;;;;;5077877;28;20103;-89
2021/08/21 06:56:06;;;;;;;4.78;3.35;;;17.40;99.90;;;;;;5096050;28;20548;-89
2021/08/21 06:58:32;;;;;;;6.40;2.97;;;17.40;99.90;;;;;;5095960;28;20495;-89
2021/08/21 07:00:58;;;;;;;3.42;3.03;;;17.80;99.90;;;;;;5078077;28;20024;-89
2021/08/21 07:03:24;;;;;;;4.75;2.97;;;18.00;99.90;;;;;;5077723;28;20031;-89
2021/08/21 07:05:50;;;;;;;4.32;3.28;;;18.20;99.90;;;;;;5077689;28;20140;-89
2021/08/21 07:08:16;;;;;;;5.30;3.33;;;18.20;99.90;;;;;;5078409;28;20073;-89
2021/08/21 07:10:42;;;;;;;5.00;3.17;;;18.30;99.90;;;;;;5077427;28;20034;-89
2021/08/21 07:13:08;;;;;;;5.93;3.50;;;18.40;99.90;;;;;;5077443;28;20103;-89
2021/08/21 07:15:34;;;;;;;4.57;3.67;;;18.60;99.90;;;;;;5077443;28;20045;-89
2021/08/21 07:17:59;;;;;;;7.97;3.28;;;18.50;99.90;;;;;;5077796;28;20027;-89
2021/08/21 07:20:25;;;;;;;5.00;3.47;;;18.50;99.90;;;;;;5096822;28;20027;-89
2021/08/21 07:22:51;;;;;;;5.18;3.40;;;18.60;99.90;;;;;;5080917;28;20074;-89
2021/08/21 07:25:17;;;;;;;5.68;3.30;;;18.70;99.90;;;;;;5101497;28;20024;-89
2021/08/21 07:27:43;;;;;;;4.32;2.85;;;18.80;99.90;;;;;;5099562;28;20032;-89
2021/08/21 07:30:10;;;;;;;5.43;3.13;;;18.90;99.90;;;;;;5079735;28;20077;-89
2021/08/21 07:32:36;;;;;;;6.70;3.40;;;19.00;99.90;;;;;;5078181;28;20480;-89
2021/08/21 07:35:03;;;;;;;9.25;3.47;;;18.90;99.90;;;;;;5095543;28;20472;-89
2021/08/21 07:37:30;;;;;;;5.28;3.40;;;19.20;99.90;;;;;;5077663;28;20020;-89
2021/08/21 07:39:56;;;;;;;6.30;3.78;;;19.40;99.90;;;;;;5095436;28;20069;-89
2021/08/21 07:42:21;;;;;;;4.03;3.00;;;19.50;99.90;;;;;;5077020;28;20031;-89
2021/08/21 07:44:47;;;;;;;4.50;2.75;;;19.60;99.90;;;;;;5077132;28;20035;-90
2021/08/21 07:47:13;;;;;;;4.95;3.47;;;19.70;99.90;;;;;;5076881;28;20020;-88
2021/08/21 07:49:39;;;;;;;4.18;3.17;;;19.90;99.90;;;;;;5076648;28;20027;-89
2021/08/21 07:52:05;;;;;;;4.22;2.95;;;20.10;99.90;;;;;;5063040;28;20102;-90
2021/08/21 07:54:30;;;;;;;5.35;3.38;;;20.20;99.90;;;;;;5053604;28;20104;-89
2021/08/21 07:56:56;;;;;;;4.25;2.75;;;20.30;99.90;;;;;;5053552;28;20021;-90
2021/08/21 07:59:22;;;;;;;6.25;3.10;;;20.50;99.90;;;;;;5053456;28;20086;-89
2021/08/21 08:01:47;;;;;;;7.18;3.47;;;20.60;99.90;;;;;;5053390;28;20388;-89
2021/08/21 08:04:13;;;;;;;6.53;3.45;;;20.50;99.90;;;;;;5053817;28;20106;-90
2021/08/21 08:06:39;;;;;;;6.55;3.40;;;20.60;99.90;;;;;;5053310;28;20025;-89
2021/08/21 08:09:05;;;;;;;6.47;3.15;;;20.60;99.90;;;;;;5053234;28;20029;-89
2021/08/21 08:11:30;;;;;;;5.15;3.53;;;20.70;99.90;;;;;;5053101;28;20507;-90
2021/08/21 08:13:56;;;;;;;7.18;3.28;;;20.90;99.90;;;;;;5053310;28;20476;-89
2021/08/21 08:16:22;;;;;;;5.10;3.38;;;20.90;99.90;;;;;;5053032;28;20025;-89
2021/08/21 08:18:47;;;;;;;7.72;3.60;;;21.10;99.90;;;;;;5054557;28;20465;-89
2021/08/21 08:21:17;;;;;;;10.32;3.53;;;21.10;99.90;;;;;;5054080;28;20105;-89
2021/08/21 08:23:44;;;;;;;5.22;3.58;;;21.30;99.90;;;;;;5053231;28;20087;-89
2021/08/21 08:26:09;;;;;;;5.05;3.20;;;21.30;99.90;;;;;;5052590;28;20033;-89
2021/08/21 08:28:35;;;;;;;4.65;2.80;;;21.30;99.90;;;;;;5054569;28;20021;-89
2021/08/21 08:31:01;;;;;;;6.15;3.40;;;21.40;99.90;;;;;;5052552;28;20029;-89
2021/08/21 08:33:26;;;;;;;7.03;3.40;;;21.50;99.90;;;;;;5053789;28;20027;-89
2021/08/21 08:35:52;;;;;;;5.93;3.30;;;21.70;99.90;;;;;;5052640;28;20376;-89
2021/08/21 08:38:19;;;;;;;6.63;3.63;;;21.70;99.90;;;;;;5052689;28;20017;-90
2021/08/21 08:40:46;;;;;;;4.63;2.80;;;22.00;99.90;;;;;;5052921;28;20028;-91
2021/08/21 08:43:12;;;;;;;6.13;3.22;;;22.10;99.90;;;;;;5053336;28;20029;-89
2021/08/21 08:45:38;;;;;;;6.88;3.60;;;22.10;99.90;;;;;;5052507;28;20032;-90
2021/08/21 08:48:04;;;;;;;6.10;3.03;;;22.10;99.90;;;;;;5053034;28;20032;-89
2021/08/21 08:50:31;;;;;;;7.30;4.07;;;22.20;99.90;;;;;;5053727;28;20504;-86
2021/08/21 08:52:57;;;;;;;5.57;3.70;;;22.30;99.90;;;;;;5052443;28;20558;-90
2021/08/21 08:55:23;;;;;;;5.70;3.85;;;22.10;99.90;;;;;;5052779;28;20021;-89
2021/08/21 08:57:50;;;;;;;7.63;3.65;;;22.30;99.90;;;;;;5053310;28;20020;-90
2021/08/21 09:00:17;;;;;;;6.30;3.60;;;22.30;99.90;;;;;;5054104;28;20021;-90
2021/08/21 09:02:48;;;;;;;6.07;3.67;;;22.50;99.90;;;;;;5052525;28;20044;-89
2021/08/21 09:05:16;;;;;;;6.70;3.63;;;22.90;99.90;;;;;;5052401;28;20035;-90
2021/08/21 09:07:53;;;;;;;12.02;4.57;;;23.10;99.90;;;;;;5052412;28;20025;-89
2021/08/21 09:10:28;;;;;;;5.20;3.75;;;23.20;99.90;;;;;;5053609;28;20031;-90
2021/08/21 09:13:11;;;;;;;;;;;23.20;99.90;;;;;;5052801;28;20021;-89
2021/08/21 09:15:54;;;;;;;7.40;4.50;;;23.40;99.90;;;;;;5052700;28;19978;-91
2021/08/21 09:18:23;;;;;;;9.93;4.33;;;23.50;99.90;;;;;;5052265;28;20059;-90
2021/08/21 09:20:49;;;;;;;5.03;3.70;;;23.70;99.90;;;;;;5053611;28;20096;-91
2021/08/21 09:23:33;;;;;;;5.95;4.10;;;23.80;99.90;;;;;;5052169;28;20052;-90
2021/08/21 09:26:19;;;;;;;5.45;3.55;;;24.00;99.90;;;;;;5052421;28;20491;-90
2021/08/21 09:28:48;;;;;;;5.15;3.80;;;23.90;99.90;;;;;;5057332;28;20400;-91
2021/08/21 09:31:25;;;;;;;6.60;4.25;;;23.90;99.90;;;;;;5058339;28;20503;-89
2021/08/21 09:33:54;;;;;;;4.90;4.10;;;23.90;99.90;;;;;;5058464;28;20017;-89
2021/08/21 09:36:32;;;;;;;11.50;4.20;;;24.30;99.90;;;;;;5073037;28;20083;-89
2021/08/21 09:39:05;;;;;;;4.63;3.95;;;24.50;99.90;;;;;;5069207;28;20100;-90
2021/08/21 09:41:59;;;;;;;5.20;3.63;;;24.60;99.90;;;;;;5056311;28;20116;-90
2021/08/21 09:44:30;;;;;;;6.90;4.13;;;24.60;99.90;;;;;;5054183;28;20465;-90
2021/08/21 09:47:25;;;;;;;9.15;4.00;;;24.80;99.90;;;;;;5052068;28;20036;-89
2021/08/21 09:49:52;;;;;;;5.90;4.35;;;25.00;99.90;;;;;;5052819;28;20029;-90
2021/08/21 09:52:20;;;;;;;10.63;4.40;;;25.10;99.90;;;;;;5051866;28;20092;-90
2021/08/21 09:55:06;;;;;;;9.63;4.30;;;25.20;99.90;;;;;;5036231;28;20025;-90
2021/08/21 09:57:32;;;;;;;11.43;4.30;;;25.40;99.90;;;;;;5057152;28;20083;-90
2021/08/21 10:00:02;;;;;;;7.88;4.18;;;25.50;99.90;;;;;;5055556;28;20029;-89
2021/08/21 10:02:33;;;;;;;11.35;4.60;;;25.80;99.90;;;;;;5055548;28;20098;-89
2021/08/21 10:05:00;;;;;;;9.88;4.18;;;25.90;99.90;;;;;;5055530;28;20063;-88
2021/08/21 10:07:33;;;;;;;6.30;4.60;;;25.70;99.90;;;;;;5058760;28;20063;-88
2021/08/21 10:10:04;;;;;;;11.23;4.00;;;25.70;99.90;;;;;;5056665;28;20396;-88
2021/08/21 10:12:34;;;;;;;10.90;3.95;;;25.80;99.90;;;;;;5056422;28;20485;-88
2021/08/21 10:15:02;;;;;;;8.80;4.10;;;26.20;99.90;;;;;;5056398;28;20046;-89
2021/08/21 10:17:30;;;;;;;7.80;4.43;;;26.40;99.90;;;;;;5055387;28;20028;-89
2021/08/21 10:19:56;;;;;;;8.45;4.35;;;26.40;99.90;;;;;;5055200;28;20033;-88
2021/08/21 10:22:26;;;;;;;7.75;3.78;;;26.50;99.90;;;;;;5055115;28;20485;-88
2021/08/21 10:24:53;;;;;;;6.35;3.92;;;26.30;99.90;;;;;;5055089;28;20021;-88
2021/08/21 10:27:35;;;;;;;8.35;4.15;;;26.60;99.90;;;;;;5055025;28;20116;-88
2021/08/21 10:30:14;;;;;;;6.97;3.75;;;26.90;99.90;;;;;;5054858;28;20029;-87
2021/08/21 10:32:58;;;;;;;8.60;4.28;;;27.30;99.90;;;;;;5054869;28;20112;-88
2021/08/21 10:35:40;;;;;;;7.43;4.15;;;27.50;99.90;;;;;;5054795;28;20025;-87
2021/08/21 10:38:35;;;;;;;5.50;3.75;;;27.30;99.90;;;;;;5054673;28;20021;-88
2021/08/21 10:41:27;;;;;;;5.68;3.30;;;27.80;99.90;;;;;;5054736;28;20028;-88
2021/08/21 10:43:58;;;;;;;8.98;3.97;;;28.20;99.90;;;;;;5054587;28;20456;-91
2021/08/21 10:46:29;;;;;;;11.50;4.75;;;28.30;99.90;;;;;;5056224;28;20496;-88
2021/08/21 10:49:00;;;;;;;5.10;3.60;;;27.80;99.90;;;;;;5054632;28;20025;-89
2021/08/21 10:51:36;;;;;;;6.25;4.13;;;28.20;99.90;;;;;;5054418;28;20053;-89
2021/08/21 10:54:25;;;;;;;5.75;3.95;;;28.60;99.90;;;;;;5055138;28;20032;-89
2021/08/21 10:56:52;;;;;;;10.43;4.90;;;28.90;99.90;;;;;;5055601;28;20112;-87
2021/08/21 10:59:43;;;;;;;6.40;4.35;;;28.60;99.90;;;;;;5054357;28;20047;-89
2021/08/21 11:02:31;;;;;;;6.07;4.07;;;28.80;99.90;;;;;;5054247;28;20021;-89
2021/08/21 11:04:58;;;;;;;6.13;4.00;;;28.90;99.90;;;;;;5054444;28;20160;-89
2021/08/21 11:07:43;;;;;;;8.23;4.50;;;29.30;99.90;;;;;;5053703;28;20070;-89
2021/08/21 11:10:26;;;;;;;11.07;4.07;;;29.20;99.90;;;;;;5054046;28;20453;-89
2021/08/21 11:12:54;;;;;;;8.85;4.57;;;29.30;99.90;;;;;;5055598;28;20024;-90
2021/08/21 11:15:22;;;;;;;7.38;4.05;;;29.60;99.90;;;;;;5055839;28;20026;-89
2021/08/21 11:17:49;;;;;;;6.53;4.05;;;29.40;99.90;;;;;;5054015;28;20028;-88
2021/08/21 11:20:35;;;;;;;7.70;3.90;;;29.80;99.90;;;;;;5054014;28;20025;-89
2021/08/21 11:23:06;;;;;;;7.07;3.50;;;30.00;99.90;;;;;;5055141;28;20086;-87
2021/08/21 11:25:37;;;;;;;7.95;3.90;;;30.40;99.90;;;;;;5053907;28;20031;-88
2021/08/21 11:28:23;;;;;;;6.68;4.32;;;30.40;99.90;;;;;;5053852;28;20506;-88
2021/08/21 11:31:11;;;;;;;4.95;3.50;;;30.00;99.90;;;;;;5053798;28;20078;-89
2021/08/21 11:33:38;;;;;;;7.15;3.60;;;30.30;99.90;;;;;;5053640;28;20033;-88
2021/08/21 11:36:05;;;;;;;10.27;3.75;;;30.50;99.90;;;;;;5055213;28;20092;-89
2021/08/21 11:38:37;;;;;;;4.47;3.28;;;30.40;99.90;;;;;;5053889;28;20074;-89
2021/08/21 11:41:14;;;;;;;10.80;3.50;;;30.30;99.50;;;;;;5055031;28;20027;-88
2021/08/21 11:43:41;;;;;;;8.95;3.45;;;30.30;99.90;;;;;;5054798;28;20021;-89
2021/08/21 11:46:08;;;;;;;8.25;3.10;;;30.60;99.90;;;;;;5071337;28;20025;-89
2021/08/21 11:48:37;;;;;;;8.30;3.50;;;31.30;99.00;;;;;;5077519;28;20029;-88
2021/08/21 11:51:04;;;;;;;5.85;3.15;;;31.50;99.20;;;;;;5061788;28;20037;-88
2021/08/21 11:53:42;;;;;;;6.03;3.20;;;31.40;98.30;;;;;;5078284;28;20390;-88
2021/08/21 11:56:08;;;;;;;4.53;3.10;;;31.20;98.20;;;;;;5095462;28;20483;-89
2021/08/21 11:58:35;;;;;;;6.90;3.60;;;31.80;97.90;;;;;;5077189;28;20081;-87
2021/08/21 12:01:50;;;;;;;6.88;3.53;;;31.60;97.20;;;;;;5095760;28;20023;-90
2021/08/21 12:06:21;;;;;;;9.43;3.60;;;30.40;99.40;;;;;;5094476;28;20077;-89
2021/08/21 12:08:47;;;;;;;6.22;3.70;;;31.00;98.40;;;;;;5094354;28;20024;-89
2021/08/21 12:11:13;;;;;;;4.28;3.00;;;31.70;97.90;;;;;;5076166;28;20028;-91
2021/08/21 12:13:39;;;;;;;9.73;3.75;;;32.40;96.90;;;;;;5094506;28;20023;-89
2021/08/21 12:16:13;;;;;;;8.10;3.42;;;32.20;96.10;;;;;;5076162;28;20072;-90
2021/08/21 12:18:40;;;;;;;;;;;31.80;96.30;;;;;;5094650;28;20069;-90
2021/08/21 12:21:09;;;;;;;7.40;4.00;;;32.30;96.50;;;;;;5075741;28;20340;-89
2021/08/21 12:23:36;;;;;;;5.70;3.45;;;32.10;95.70;;;;;;5076044;28;20020;-88
2021/08/21 12:26:04;;;;;;;6.22;3.05;;;31.70;96.10;;;;;;5075922;28;20119;-89
2021/08/21 12:28:44;;;;;;;4.30;3.30;;;31.70;96.20;;;;;;5075982;28;20027;-90
2021/08/21 12:31:15;;;;;;;4.25;3.60;;;30.80;96.90;;;;;;5093999;28;20076;-89
2021/08/21 12:33:43;;;;;;;5.60;3.38;;;31.70;97.10;;;;;;5059405;28;20031;-89
2021/08/21 12:36:14;;;;;;;6.35;3.03;;;31.30;96.10;;;;;;5075687;28;20044;-89
2021/08/21 12:39:02;;;;;;;6.28;3.35;;;30.80;97.30;;;;;;5075848;28;20067;-89
2021/08/21 12:41:29;;;;;;;8.07;3.60;;;30.30;97.20;;;;;;5075694;28;20028;-89
2021/08/21 12:44:14;;;;;;;5.60;3.35;;;29.60;98.00;;;;;;5075602;28;20030;-89
2021/08/21 12:46:53;;;;;;;6.68;3.67;;;29.30;99.00;;;;;;5075898;28;20048;-89
2021/08/21 12:49:37;;;;;;;5.85;3.30;;;30.40;97.50;;;;;;5075679;28;20480;-90
2021/08/21 12:52:26;;;;;;;6.43;3.50;;;31.10;96.30;;;;;;5075430;28;20135;-90
2021/08/21 12:55:00;;;;;;;8.00;3.33;;;31.90;95.30;;;;;;5074663;28;20028;-89
2021/08/21 12:57:46;;;;;;;;;;;31.70;94.80;;;;;;5076113;28;20096;-89
2021/08/21 13:00:17;;;;;;;4.53;3.08;;;32.50;94.40;;;;;;5075494;28;20348;-90